Latest Weather Observations for Cerberus

IDV60801

Issued at 2:32 pm EST Sunday 28 May 2017 (issued every 30 minutes, with the page automatically refreshed every 10 minutes)

About weather observations | Map of weather stations | Latest weather observations for VIC | Other Formats
Station Details ID: 086361 Name: CERBERUS Lat: -38.36 Lon: 145.18 Height: 12.69 m
Data from the previous 72 hours. | See also: Recent months at Cerberus
Date/Time
EST
Temp
°C
App
Temp
°C
Dew
Point
°C
Rel
Hum
%
Delta-T
°C
Wind Press
QNH
hPa
Press
MSL
hPa
Rain since
9am
mm
Dir  Spd
km/h
Gust
km/h
Spd
kts
Gust
kts
28/02:30pm 11.6 7.2 5.0 64 3.0 WNW 17 30 9 16 1006.5 1006.5 0.0
28/02:00pm 12.5 6.9 5.2 61 3.4 WNW 24 41 13 22 1006.3 1006.3 0.0
28/01:30pm 13.2 9.2 6.5 64 3.2 WNW 17 30 9 16 1006.3 1006.3 0.0
28/01:00pm 12.7 7.7 6.5 66 3.0 WNW 22 33 12 18 1006.2 1006.2 0.0
28/12:30pm 11.8 7.4 6.5 70 2.5 WNW 19 32 10 17 1006.5 1006.5 0.0
28/12:00pm 11.7 7.1 6.6 71 2.4 WNW 20 33 11 18 1007.0 1007.0 0.0
28/11:30am 11.4 7.1 6.9 74 2.1 WNW 19 30 10 16 1007.2 1007.2 0.0
28/11:00am 11.8 7.2 6.7 71 2.4 WNW 20 32 11 17 1007.2 1007.2 0.0
28/10:30am 12.2 7.8 6.5 68 2.7 NW 19 32 10 17 1007.0 1007.0 0.0
28/10:00am 11.9 7.7 7.4 74 2.2 WNW 19 32 10 17 1007.0 1007.0 0.0
28/09:30am 11.4 6.1 6.9 74 2.1 WNW 24 37 13 20 1006.8 1006.8 0.0
28/09:00am 11.4 6.6 7.3 76 2.0 WNW 22 35 12 19 1006.6 1006.6 12.0
28/08:30am 10.8 5.9 7.1 78 1.8 WNW 22 35 12 19 1006.7 1006.7 11.8
28/08:00am 10.9 7.9 7.8 81 1.5 WNW 13 24 7 13 1006.6 1006.6 11.8
28/07:30am 10.8 7.5 8.2 84 1.3 WNW 15 22 8 12 1006.3 1006.3 11.8
28/07:00am 10.8 7.6 8.4 85 1.2 NW 15 24 8 13 1006.3 1006.3 11.8
28/06:30am 10.7 7.9 8.5 86 1.1 NW 13 22 7 12 1006.2 1006.2 11.8
28/06:00am 10.6 8.2 8.5 87 1.0 NW 11 17 6 9 1006.2 1006.2 11.8
28/05:30am 10.8 7.6 8.4 85 1.2 NW 15 26 8 14 1006.0 1006.0 11.4
28/05:00am 11.0 8.5 8.2 83 1.4 NW 11 19 6 10 1005.8 1005.8 11.4
28/04:30am 10.1 9.0 8.4 89 0.8 N 4 7 2 4 1006.1 1006.1 11.4
28/04:00am 10.1 8.6 8.5 90 0.8 N 6 15 3 8 1006.1 1006.1 11.4
28/03:30am 10.2 9.5 8.6 90 0.8 WSW 2 6 1 3 1006.5 1006.5 11.4
28/03:00am 10.3 8.7 8.7 90 0.8 N 7 17 4 9 1005.6 1005.6 11.4
28/02:30am 10.4 8.4 8.8 90 0.8 NNW 9 15 5 8 1006.3 1006.3 11.4
28/02:00am 10.7 7.6 9.0 89 0.8 NW 15 22 8 12 1006.9 1006.9 11.0
28/01:30am 10.9 7.5 9.3 90 0.8 WNW 17 28 9 15 1007.0 1007.0 8.4
28/01:00am 10.9 8.2 9.0 88 0.9 WNW 13 20 7 11 1007.0 1007.0 6.6
28/12:30am 11.5 7.3 8.2 80 1.6 W 20 35 11 19 1007.1 1007.1 2.8
28/12:00am 15.2 11.8 9.1 67 3.1 N 17 32 9 17 1006.3 1006.3 1.0
 
Date/Time
EST
Temp
°C
App
Temp
°C
Dew
Point
°C
Rel
Hum
%
Delta-T
°C
Wind Press
QNH
hPa
Press
MSL
hPa
Rain since
9am
mm
Dir  Spd
km/h
Gust
km/h
Spd
kts
Gust
kts
27/11:30pm 15.1 11.3 9.2 68 3.0 N 19 33 10 18 1006.7 1006.7 1.0
27/11:00pm 14.4 12.6 9.6 73 2.5 N 9 19 5 10 1007.3 1007.3 1.0
27/10:30pm 13.4 12.1 10.0 80 1.8 NNE 7 13 4 7 1008.0 1008.0 1.0
27/10:00pm 14.0 11.7 10.4 79 1.9 N 13 24 7 13 1008.3 1008.3 0.8
27/09:30pm 16.1 13.7 8.8 62 3.7 N 11 22 6 12 1008.8 1008.8 0.0
27/09:00pm 16.0 13.2 8.7 62 3.7 N 13 24 7 13 1008.9 1008.9 0.0
27/08:30pm 16.0 13.2 8.7 62 3.7 N 13 22 7 12 1009.1 1009.1 0.0
27/08:00pm 15.6 13.7 9.1 65 3.3 N 9 19 5 10 1009.4 1009.4 0.0
27/07:30pm 16.3 13.6 8.8 61 3.8 N 13 26 7 14 1009.7 1009.7 0.0
27/07:00pm 15.8 13.8 8.8 63 3.6 N 9 19 5 10 1010.0 1010.0 0.0
27/06:30pm 15.6 13.6 8.8 64 3.5 N 9 17 5 9 1009.9 1009.9 0.0
27/06:00pm 15.9 13.6 8.9 63 3.6 N 11 20 6 11 1010.1 1010.1 0.0
27/05:30pm 16.2 13.1 8.7 61 3.8 N 15 24 8 13 1010.2 1010.2 0.0
27/05:00pm 16.4 13.6 8.6 60 4.0 N 13 24 7 13 1010.4 1010.4 0.0
27/04:30pm 16.5 13.7 8.7 60 4.0 N 13 24 7 13 1010.7 1010.7 0.0
27/04:00pm 16.6 13.6 9.3 62 3.8 N 15 28 8 15 1011.0 1011.0 0.0
27/03:30pm 16.8 13.4 9.2 61 3.9 N 17 30 9 16 1011.0 1011.0 0.0
27/03:00pm 17.0 13.2 9.2 60 4.1 N 19 35 10 19 1011.4 1011.4 0.0
27/02:30pm 17.3 13.2 8.7 57 4.4 N 20 35 11 19 1011.5 1011.5 0.0
27/02:00pm 17.4 14.0 9.3 59 4.2 N 17 30 9 16 1012.0 1012.0 0.0
27/01:30pm 17.1 13.4 9.5 61 4.0 N 19 33 10 18 1012.6 1012.6 0.0
27/01:00pm 17.5 14.7 10.1 62 3.9 N 15 30 8 16 1013.1 1013.1 0.0
27/12:30pm 16.8 13.5 9.5 62 3.8 N 17 37 9 20 1013.7 1013.7 0.0
27/12:00pm 16.8 13.1 9.5 62 3.8 NNW 19 32 10 17 1014.6 1014.6 0.0
27/11:30am 16.8 13.3 10.2 65 3.5 NNW 19 32 10 17 1015.3 1015.3 0.0
27/11:00am 15.9 12.7 9.8 67 3.2 N 17 32 9 17 1015.9 1015.9 0.0
27/10:30am 15.7 12.5 9.8 68 3.1 NNW 17 30 9 16 1016.2 1016.2 0.0
27/10:00am 15.1 11.9 9.9 71 2.7 NNW 17 30 9 16 1016.6 1016.6 0.0
27/09:30am 14.5 12.1 9.9 74 2.4 N 13 26 7 14 1016.8 1016.8 0.0
27/09:00am 14.3 11.9 9.9 75 2.3 N 13 26 7 14 1017.2 1017.2 0.0
27/08:30am 14.0 11.5 9.8 76 2.2 N 13 24 7 13 1017.1 1017.1 0.0
27/08:00am 13.9 11.8 9.9 77 2.1 N 11 20 6 11 1017.1 1017.1 0.0
27/07:30am 14.0 12.0 10.0 77 2.1 N 11 28 6 15 1017.0 1017.0 0.0
27/07:00am 13.7 11.7 10.1 79 1.9 N 11 19 6 10 1016.9 1016.9 0.0
27/06:30am 13.5 11.1 10.1 80 1.8 N 13 24 7 13 1016.8 1016.8 0.0
27/06:00am 13.5 10.7 10.1 80 1.8 N 15 28 8 15 1016.7 1016.7 0.0
27/05:30am 13.4 11.0 10.2 81 1.7 N 13 20 7 11 1016.7 1016.7 0.0
27/05:00am 13.5 10.8 10.3 81 1.7 N 15 26 8 14 1016.8 1016.8 0.0
27/04:30am 13.1 10.8 10.3 83 1.4 N 13 26 7 14 1016.9 1016.9 0.0
27/04:00am 13.0 10.7 10.4 84 1.3 N 13 22 7 12 1017.1 1017.1 0.0
27/03:30am 12.7 10.8 10.4 86 1.2 N 11 19 6 10 1017.4 1017.4 0.0
27/03:00am 12.5 10.6 10.6 88 1.0 N 11 20 6 11 1017.7 1017.7 0.0
27/02:30am 11.9 10.0 10.5 91 0.7 N 11 17 6 9 1017.9 1017.9 0.0
27/02:00am 10.9 9.5 9.7 92 0.6 N 7 13 4 7 1018.1 1018.1 0.0
27/01:30am 9.4 7.7 8.2 92 0.6 N 7 11 4 6 1018.4 1018.4 0.0
27/01:00am 8.2 6.7 6.8 91 0.6 N 4 9 2 5 1018.7 1018.7 0.0
27/12:30am 6.7 5.6 5.2 90 0.7 CALM 0 0 0 0 1019.1 1019.1 0.0
27/12:00am 8.4 7.3 7.0 91 0.7 N 2 4 1 2 1019.2 1019.2 0.0
 
Date/Time
EST
Temp
°C
App
Temp
°C
Dew
Point
°C
Rel
Hum
%
Delta-T
°C
Wind Press
QNH
hPa
Press
MSL
hPa
Rain since
9am
mm
Dir  Spd
km/h
Gust
km/h
Spd
kts
Gust
kts
26/11:30pm 7.8 5.8 6.1 89 0.8 N 6 7 3 4 1019.3 1019.3 0.0
26/11:00pm 7.9 6.3 6.4 90 0.7 NNE 4 6 2 3 1019.3 1019.3 0.0
26/10:30pm 7.5 5.8 6.0 90 0.7 N 4 6 2 3 1019.6 1019.6 0.0
26/10:00pm 7.5 5.8 6.0 90 0.7 N 4 6 2 3 1019.7 1019.7 0.0
26/09:30pm 7.3 6.3 5.6 89 0.8 CALM 0 0 0 0 1019.8 1019.8 0.0
26/09:00pm 7.3 5.9 5.4 88 0.8 W 2 4 1 2 1019.8 1019.8 0.0
26/08:30pm 8.3 7.5 6.3 87 0.9 CALM 0 0 0 0 1019.9 1019.9 0.0
26/08:00pm 8.8 8.0 6.6 86 1.0 CALM 0 0 0 0 1019.9 1019.9 0.0
26/07:30pm 9.3 8.6 6.9 85 1.1 CALM 0 2 0 1 1019.9 1019.9 0.0
26/07:00pm 9.2 8.0 6.6 84 1.2 W 2 2 1 1 1019.7 1019.7 0.0
26/06:30pm 10.1 9.1 7.3 83 1.3 W 2 4 1 2 1019.7 1019.7 0.0
26/06:00pm 10.3 9.6 6.8 79 1.6 CALM 0 0 0 0 1019.7 1019.7 0.0
26/05:30pm 11.6 10.8 6.5 71 2.4 CALM 0 0 0 0 1019.7 1019.7 0.0
26/05:00pm 12.5 11.6 6.1 65 3.0 CALM 0 0 0 0 1019.7 1019.7 0.0
26/04:30pm 14.5 12.9 6.3 58 3.9 W 4 6 2 3 1019.8 1019.8 0.0
26/04:00pm 15.3 13.6 5.8 53 4.5 NW 4 6 2 3 1019.9 1019.9 0.0
26/03:30pm 15.6 13.4 5.5 51 4.8 NW 6 9 3 5 1020.0 1020.0 0.0
26/03:00pm 15.8 13.6 6.0 52 4.7 NW 7 13 4 7 1020.1 1020.1 0.0
26/02:30pm 16.0 13.8 6.2 52 4.8 NW 7 17 4 9 1020.3 1020.3 0.0
26/02:00pm 16.0 13.9 6.7 54 4.5 NNW 7 13 4 7 1020.4 1020.4 0.0
26/01:30pm 15.8 12.5 4.8 48 5.2 NNW 11 15 6 8 1020.6 1020.6 0.0
26/01:00pm 16.2 13.5 5.8 50 5.0 NW 9 15 5 8 1020.9 1020.9 0.0
26/12:30pm 15.9 13.4 4.6 47 5.3 W 7 15 4 8 1021.2 1021.2 0.0
26/12:00pm 16.1 13.8 5.7 50 5.0 NW 7 9 4 5 1021.7 1021.7 0.0
26/11:30am 15.5 13.3 6.2 54 4.5 WSW 7 13 4 7 1022.2 1022.2 0.0
26/11:00am 15.3 13.2 6.8 57 4.1 W 7 11 4 6 1022.5 1022.5 0.0
26/10:30am 14.4 12.2 7.7 64 3.3 W 9 15 5 8 1022.7 1022.7 0.0
26/10:00am 13.7 12.9 11.0 84 1.4 WNW 6 7 3 4 1022.6 1022.6 0.0
26/09:30am 12.8 12.9 11.4 91 0.7 NW 2 6 1 3 1022.6 1022.6 0.0
26/09:00am 10.9 10.4 9.5 91 0.7 NW 2 4 1 2 1022.5 1022.5 3.6
26/08:30am 10.7 9.5 9.5 92 0.6 NNW 6 6 3 3 1022.2 1022.2 3.6
26/08:00am 10.2 8.8 9.0 92 0.6 NNW 6 7 3 4 1022.1 1022.1 3.6
26/07:30am 9.8 8.3 8.4 91 0.7 NNW 6 7 3 4 1021.8 1021.8 3.6
26/07:00am 9.8 8.6 8.2 90 0.8 W 4 6 2 3 1021.4 1021.4 3.6
26/06:30am 10.5 9.5 8.9 90 0.8 W 4 6 2 3 1021.1 1021.1 3.6
26/06:00am 11.1 9.9 9.7 91 0.7 WNW 6 9 3 5 1020.8 1020.8 3.6
26/05:30am 11.7 10.7 10.3 91 0.7 WNW 6 7 3 4 1020.6 1020.6 3.6
26/05:00am 11.5 10.5 10.2 92 0.7 WNW 6 7 3 4 1020.1 1020.1 3.6
26/04:30am 11.9 11.0 10.6 92 0.7 W 6 6 3 3 1019.8 1019.8 3.6
26/04:00am 11.9 11.4 10.6 92 0.7 NW 4 7 2 4 1019.7 1019.7 3.6
26/03:30am 12.1 11.6 10.8 92 0.7 WNW 4 6 2 3 1019.6 1019.6 3.4
26/03:00am 12.5 12.9 11.1 91 0.7 CALM 0 4 0 2 1019.4 1019.4 3.4
26/02:30am 12.7 12.0 11.3 91 0.7 WNW 6 9 3 5 1019.4 1019.4 3.4
26/02:00am 12.6 12.2 11.2 91 0.7 NW 4 7 2 4 1019.2 1019.2 3.2
26/01:30am 12.6 11.8 11.2 91 0.7 NW 6 7 3 4 1019.2 1019.2 3.2
26/01:00am 12.4 11.9 10.8 90 0.8 W 4 6 2 3 1019.1 1019.1 3.2
26/12:30am 12.6 11.6 11.0 90 0.8 WNW 7 11 4 6 1019.3 1019.3 3.0
26/12:00am 12.7 12.2 10.9 89 0.9 WSW 4 6 2 3 1019.2 1019.2 2.6
 
Date/Time
EST
Temp
°C
App
Temp
°C
Dew
Point
°C
Rel
Hum
%
Delta-T
°C
Wind Press
QNH
hPa
Press
MSL
hPa
Rain since
9am
mm
Dir  Spd
km/h
Gust
km/h
Spd
kts
Gust
kts
25/11:30pm 12.9 11.9 11.0 88 1.0 WSW 7 11 4 6 1019.1 1019.1 1.8
25/11:00pm 13.7 11.2 11.2 85 1.3 SW 15 24 8 13 1019.0 1019.0 0.4
25/10:30pm 14.9 13.1 10.9 77 2.1 NNW 11 20 6 11 1018.4 1018.4 0.0
25/10:00pm 14.8 13.1 11.2 79 1.9 NNW 11 20 6 11 1018.4 1018.4 0.0
25/09:30pm 14.6 13.2 11.0 79 1.9 NNW 9 17 5 9 1018.3 1018.3 0.0
25/09:00pm 14.5 13.0 10.7 78 2.0 NNW 9 17 5 9 1018.1 1018.1 0.0
25/08:30pm 14.3 12.8 10.7 79 1.9 NNW 9 20 5 11 1018.0 1018.0 0.0
25/08:00pm 14.8 12.9 10.4 75 2.3 NNW 11 19 6 10 1018.0 1018.0 0.0
25/07:30pm 15.9 12.5 10.4 70 2.9 NW 19 28 10 15 1018.1 1018.1 0.0
25/07:00pm 15.8 12.7 10.3 70 2.9 NW 17 30 9 16 1017.9 1017.9 0.0
25/06:30pm 15.8 12.7 10.3 70 2.9 NW 17 30 9 16 1017.9 1017.9 0.0
25/06:00pm 16.0 13.3 10.5 70 2.9 NW 15 24 8 13 1017.7 1017.7 0.0
25/05:30pm 15.9 13.2 10.4 70 2.9 NW 15 24 8 13 1017.6 1017.6 0.0
25/05:00pm 16.2 13.7 9.6 65 3.4 NNW 13 22 7 12 1017.3 1017.3 0.0
25/04:30pm 15.8 13.6 9.2 65 3.4 NNW 11 19 6 10 1017.3 1017.3 0.0
25/04:00pm 15.7 13.0 8.9 64 3.5 NNW 13 24 7 13 1017.3 1017.3 0.0
25/03:30pm 15.7 12.2 8.7 63 3.6 NNW 17 24 9 13 1017.3 1017.3 0.0
25/03:00pm 15.9 12.6 8.2 60 3.9 NNW 15 28 8 15 1017.1 1017.1 0.0

Other Formats:

Comma delimited format used in spreadsheet applications
http://www.bom.gov.au/fwo/IDV60801/IDV60801.94898.axf

JavaScript Object Notation format (JSON) in row-major order
http://www.bom.gov.au/fwo/IDV60801/IDV60801.94898.json